aviador You're here:

YSSY Decoded Metar

SYDNEY in AUSTRALIA
Report Time2017-10-24 11:00:00
UTC Time2017-10-24 11:25:21
Flight Rules vfr VFR
Wind200° at 04 kt
W.Decomp.*RWY 16: 3.5 kt HW 1.9 kt RCW
RWY 25: 1.9 kt HW 3.5 kt LCW
W.Rank200° ranks 16
Current wind is below 200° avg. (13.9)
Visibility9999 m
Phenomena:N/A
Clouds:N/A
Expected CloudBase > 4,000 ft AGL from Temp-Dew spread
CeilingNone
Temp21°C (ISA +6)
Dew Point11°C (53% RH)
AAT19.9°C
QNH1016 hPa
Density Alt791 ft
Elevation10 ft
Report Wrong Elevation
Raw Report
METAR YSSY 241100Z 20004KT CAVOK 21/11 Q1016
NOSIG=

Extra information for YSSY:More info

Metar Taf Metar & Taf Last 4 Metars F.Rules Stats Wind Profile Meteogram Temp Stats Airport Information Weather charts Add Link Nearby VenuesMetar ALERT Operation Metar Decoded Social comments